Portada
METAR-TAF:

METAR-TAF

Aeroports :

Thimphu, Índia

latitud: 27-24-32N, longitud: 89-25-14E, altitud: 2235 m

Observació

L'informe es va fer fa 37 minuts, a les 04:30 UTC
Vent 3 kt amb direcció variable
Temperatura 13°C
Humitat 51%
Pressió 1020 hPa
Visibilitat 10 km o més
Escasses núvols a una alçada de 1000 ft
Núvols disperses a una alçada de 4000 ft

METAR: VQPR 200430Z VRB03KT 9999 FEW010 SCT040 13/03 Q1020

Hora: 11:07 (05:07 UTC)


TAF: manca

Observacions i pronòstics meteorològics de més de 4000 aeroports (METAR i TAF).

Les estacions disponibles són els punts grocs i vermells al mapa.

Posi el ratolí al punt desitjat per veure el nom de l'estació.

Feu clic per veure les observacions i els pronòstics meteorològics.

Per canviar el mapa: feu clic els botons verds amb una creu de color negre per apropar; al botó verd amb un guió per allunyar la imatge; o en les fletxes verdes per a mapes adjacents.


METAR-TAF: